createdAt,value
2023-04-07T00:00:04.493Z,10.00
2023-04-07T00:02:32.410Z,10.60
2023-04-07T00:04:59.178Z,9.30
2023-04-07T00:07:25.742Z,8.05
2023-04-07T00:09:52.279Z,10.45
2023-04-07T00:12:18.764Z,10.98
2023-04-07T00:14:45.370Z,10.88
2023-04-07T00:17:11.868Z,10.48
2023-04-07T00:19:38.506Z,8.95
2023-04-07T00:22:05.010Z,13.90
2023-04-07T00:24:34.604Z,18.45
2023-04-07T00:27:02.157Z,14.45
2023-04-07T00:29:28.768Z,11.50
2023-04-07T00:31:55.288Z,11.30
2023-04-07T00:34:21.831Z,9.90
2023-04-07T00:36:52.142Z,11.00
2023-04-07T00:39:19.728Z,8.43
2023-04-07T00:41:47.188Z,11.55
2023-04-07T00:44:14.333Z,10.35
2023-04-07T00:46:41.527Z,10.35
2023-04-07T00:49:10.572Z,10.10
2023-04-07T00:51:38.000Z,10.73
2023-04-07T00:54:04.778Z,11.40
2023-04-07T00:56:32.062Z,9.00
2023-04-07T00:58:58.625Z,12.60
2023-04-07T01:01:33.315Z,11.70
2023-04-07T01:04:09.872Z,11.63
2023-04-07T01:06:44.008Z,12.60
2023-04-07T01:09:35.075Z,11.45
2023-04-07T01:12:29.038Z,12.48
2023-04-07T01:15:00.379Z,12.65
2023-04-07T01:17:28.494Z,12.45
2023-04-07T01:20:08.122Z,10.70
2023-04-07T01:22:47.629Z,12.18
2023-04-07T01:25:53.871Z,13.68
2023-04-07T01:28:39.034Z,10.63
2023-04-07T01:31:07.657Z,14.10
2023-04-07T01:33:36.645Z,13.77
2023-04-07T01:36:07.175Z,9.90
2023-04-07T01:38:34.921Z,12.18
2023-04-07T01:41:02.921Z,11.18
2023-04-07T01:43:31.112Z,10.52
2023-04-07T01:45:57.981Z,11.52
2023-04-07T01:48:25.904Z,10.40
2023-04-07T01:50:53.279Z,12.32
2023-04-07T01:53:20.374Z,10.43
2023-04-07T01:55:46.886Z,12.68
2023-04-07T01:58:13.468Z,12.87
2023-04-07T02:00:40.964Z,11.98
2023-04-07T02:03:20.681Z,10.43
2023-04-07T02:05:56.502Z,11.48
2023-04-07T02:08:28.816Z,11.18
2023-04-07T02:10:59.469Z,13.98
2023-04-07T02:13:27.547Z,10.20
2023-04-07T02:15:56.328Z,9.73
2023-04-07T02:18:25.100Z,13.27
2023-04-07T02:20:52.677Z,13.77
2023-04-07T02:23:19.377Z,9.90
2023-04-07T02:25:46.241Z,8.98
2023-04-07T02:28:12.708Z,9.82
2023-04-07T02:30:40.051Z,10.70
2023-04-07T02:33:06.647Z,9.30
2023-04-07T02:35:33.313Z,10.60
2023-04-07T02:37:59.819Z,16.70
2023-04-07T02:40:26.357Z,11.95
2023-04-07T02:42:52.874Z,11.75
2023-04-07T02:45:19.427Z,10.25
2023-04-07T02:47:46.179Z,12.48
2023-04-07T02:50:12.741Z,11.38
2023-04-07T02:52:39.264Z,11.50
2023-04-07T02:55:07.301Z,11.75
2023-04-07T02:57:33.873Z,12.63
2023-04-07T03:00:00.514Z,10.68
2023-04-07T03:02:27.223Z,11.30
2023-04-07T03:04:54.006Z,12.43
2023-04-07T03:07:20.655Z,11.60
2023-04-07T03:09:47.202Z,12.00
2023-04-07T03:12:13.760Z,12.20
2023-04-07T03:14:40.274Z,11.97
2023-04-07T03:17:06.924Z,10.43
2023-04-07T03:19:33.543Z,12.43
2023-04-07T03:22:00.166Z,12.73
2023-04-07T03:24:27.091Z,12.00
2023-04-07T03:26:53.662Z,12.98
2023-04-07T03:29:20.275Z,11.65
2023-04-07T03:31:46.799Z,13.48
2023-04-07T03:34:13.741Z,13.65
2023-04-07T03:36:40.359Z,10.17
2023-04-07T03:39:06.877Z,11.30
2023-04-07T03:41:33.783Z,9.52
2023-04-07T04:03:35.906Z,13.90
2023-04-07T04:06:02.564Z,12.10
2023-04-07T04:10:55.876Z,13.10
2023-04-07T06:40:01.045Z,6.97
2023-04-07T06:42:28.448Z,6.93
2023-04-07T06:44:54.970Z,6.05
2023-04-07T06:47:21.884Z,5.97
2023-04-07T06:49:48.396Z,6.78
2023-04-07T06:52:15.527Z,6.30
2023-04-07T06:54:42.057Z,7.70
2023-04-07T06:57:12.055Z,7.25
2023-04-07T06:59:39.209Z,6.57
2023-04-07T07:02:07.581Z,7.15
2023-04-07T07:04:35.402Z,7.68
2023-04-07T07:07:02.478Z,6.85
2023-04-07T07:09:28.975Z,6.82
2023-04-07T07:11:56.083Z,6.53
2023-04-07T07:14:22.638Z,6.57
2023-04-07T07:16:50.218Z,7.28
2023-04-07T07:19:16.765Z,7.38
2023-04-07T07:21:43.345Z,6.38
2023-04-07T07:24:09.872Z,5.82
2023-04-07T07:26:36.454Z,7.00
2023-04-07T07:29:02.957Z,5.75
2023-04-07T07:31:31.043Z,6.35
2023-04-07T07:33:57.664Z,5.43
2023-04-07T07:36:24.226Z,7.82
2023-04-07T07:38:51.755Z,7.78
2023-04-07T07:41:18.356Z,4.93
2023-04-07T07:43:44.926Z,4.95
2023-04-07T07:46:11.468Z,5.13
2023-04-07T07:48:37.979Z,5.00
2023-04-07T07:51:04.906Z,6.63
2023-04-07T07:53:31.466Z,5.03
2023-04-07T07:55:58.117Z,4.18
2023-04-07T07:58:24.764Z,5.78
2023-04-07T08:00:51.349Z,4.65
2023-04-07T08:03:19.972Z,4.68
2023-04-07T08:05:48.421Z,5.65
2023-04-07T08:08:14.930Z,5.50
2023-04-07T08:10:41.520Z,4.32
2023-04-07T08:13:08.065Z,5.30
2023-04-07T08:15:34.656Z,4.10
2023-04-07T08:18:04.346Z,5.72
2023-04-07T08:20:31.627Z,3.92
2023-04-07T08:22:58.422Z,4.68
2023-04-07T08:25:24.959Z,4.00
2023-04-07T08:27:51.580Z,4.45
2023-04-07T08:30:18.239Z,3.63
2023-04-07T08:32:45.505Z,3.70
2023-04-07T08:35:12.514Z,5.85
2023-04-07T08:37:41.122Z,3.90
2023-04-07T08:40:08.100Z,3.47
2023-04-07T08:42:36.275Z,4.35
2023-04-07T08:45:05.883Z,4.00
2023-04-07T08:47:34.676Z,3.40
2023-04-07T08:50:03.927Z,4.80
2023-04-07T08:52:48.419Z,3.67
2023-04-07T08:55:15.335Z,3.63
2023-04-07T08:57:42.879Z,4.72
2023-04-07T09:00:10.231Z,4.22
2023-04-07T09:02:38.700Z,4.20
2023-04-07T09:05:07.631Z,4.07
2023-04-07T09:07:35.837Z,3.67
2023-04-07T09:10:02.715Z,3.85
2023-04-07T09:12:29.888Z,3.65
2023-04-07T09:14:56.555Z,3.47
2023-04-07T09:17:24.918Z,3.78
2023-04-07T09:19:56.081Z,3.90
2023-04-07T09:22:35.936Z,4.38
2023-04-07T09:25:29.930Z,3.75
2023-04-07T09:28:02.217Z,4.70
2023-04-07T09:30:29.883Z,3.47
2023-04-07T09:32:57.236Z,4.93
2023-04-07T09:35:24.762Z,3.25
2023-04-07T09:38:03.608Z,4.45
2023-04-07T09:40:30.443Z,3.05
2023-04-07T09:42:58.675Z,3.38
2023-04-07T09:45:34.432Z,4.32
2023-04-07T09:48:18.104Z,3.75
2023-04-07T09:50:49.357Z,3.80
2023-04-07T09:53:17.060Z,3.83
2023-04-07T09:55:44.210Z,3.63
2023-04-07T09:58:14.529Z,4.13
2023-04-07T10:00:42.284Z,3.50
2023-04-07T10:03:09.412Z,3.20
2023-04-07T10:05:36.734Z,3.80
2023-04-07T10:08:06.057Z,3.85
2023-04-07T10:10:33.150Z,3.88
2023-04-07T10:12:59.846Z,3.53
2023-04-07T10:15:26.719Z,2.83
2023-04-07T10:17:53.991Z,3.63
2023-04-07T10:20:23.156Z,3.40
2023-04-07T10:22:53.785Z,5.93
2023-04-07T10:25:24.416Z,3.72
2023-04-07T10:27:59.223Z,3.38
2023-04-07T10:30:28.982Z,4.18
2023-04-07T10:32:55.931Z,3.58
2023-04-07T10:35:23.333Z,3.13
2023-04-07T10:38:08.233Z,3.22
2023-04-07T10:40:35.969Z,3.92
2023-04-07T10:43:02.865Z,3.00
2023-04-07T10:45:54.277Z,3.33
2023-04-07T10:48:21.958Z,2.63
2023-04-07T10:51:08.026Z,3.08
2023-04-07T10:53:34.951Z,1.95
2023-04-07T10:56:01.774Z,3.55
2023-04-07T10:58:32.281Z,4.25
2023-04-07T11:01:01.605Z,3.08
2023-04-07T11:03:30.249Z,3.75
2023-04-07T11:06:10.577Z,3.92
2023-04-07T11:08:39.373Z,2.95
2023-04-07T11:11:09.322Z,3.05
2023-04-07T11:13:47.912Z,2.70
2023-04-07T11:16:16.625Z,2.92
2023-04-07T11:18:44.304Z,3.08
2023-04-07T11:21:11.141Z,3.38
2023-04-07T11:23:42.492Z,4.40
2023-04-07T11:26:11.513Z,5.72
2023-04-07T11:28:52.817Z,3.40
2023-04-07T11:31:27.420Z,2.67
2023-04-07T11:34:01.685Z,2.70
2023-04-07T11:36:31.008Z,3.47
2023-04-07T11:38:58.094Z,2.13
2023-04-07T11:41:30.721Z,3.17
2023-04-07T11:44:11.086Z,2.65
2023-04-07T11:46:53.656Z,3.92
2023-04-07T11:49:20.682Z,2.72
2023-04-07T11:51:47.311Z,2.28
2023-04-07T11:54:13.903Z,1.88
2023-04-07T11:56:46.034Z,2.35
2023-04-07T11:59:20.953Z,1.73
2023-04-07T12:01:48.235Z,3.50
2023-04-07T12:04:16.332Z,2.55
2023-04-07T12:06:43.922Z,2.22
2023-04-07T12:09:34.798Z,3.72
2023-04-07T12:12:02.695Z,4.85
2023-04-07T12:14:29.443Z,3.28
2023-04-07T12:16:57.767Z,3.67
2023-04-07T12:19:28.607Z,7.30
2023-04-07T12:21:56.840Z,2.50
2023-04-07T12:24:23.978Z,2.22
2023-04-07T12:26:50.585Z,3.80
2023-04-07T12:29:17.621Z,4.47
2023-04-07T12:31:44.173Z,3.85
2023-04-07T12:34:10.788Z,4.65
2023-04-07T12:36:37.338Z,3.53
2023-04-07T12:39:03.870Z,3.38
2023-04-07T12:41:31.352Z,3.05
2023-04-07T12:43:57.913Z,3.13
2023-04-07T12:46:24.606Z,3.03
2023-04-07T12:48:51.808Z,3.67
2023-04-07T12:51:18.553Z,3.10
2023-04-07T12:53:45.347Z,2.90
2023-04-07T12:56:13.241Z,2.13
2023-04-07T12:58:40.764Z,2.58
2023-04-07T13:01:07.906Z,2.83
2023-04-07T13:03:34.630Z,2.80
2023-04-07T13:06:01.642Z,2.58
2023-04-07T13:08:29.308Z,4.10
2023-04-07T13:10:56.862Z,2.58
2023-04-07T13:13:24.116Z,3.67
2023-04-07T13:15:50.813Z,2.78
2023-04-07T13:18:17.450Z,2.50
2023-04-07T13:20:54.374Z,2.28
2023-04-07T13:23:42.020Z,1.98
2023-04-07T13:26:10.225Z,2.58
2023-04-07T13:28:36.779Z,2.40
2023-04-07T13:31:03.651Z,3.45
2023-04-07T13:33:30.187Z,2.38
2023-04-07T13:35:56.942Z,2.03
2023-04-07T13:38:24.526Z,2.40
2023-04-07T13:40:51.094Z,2.20
2023-04-07T13:43:19.082Z,2.70
2023-04-07T13:45:48.081Z,2.40
2023-04-07T13:48:14.809Z,3.33
2023-04-07T13:50:41.295Z,3.05
2023-04-07T13:53:08.068Z,2.60
2023-04-07T13:55:34.611Z,2.75
2023-04-07T13:58:01.326Z,2.28
2023-04-07T14:00:28.056Z,2.28
2023-04-07T14:02:56.136Z,1.98
2023-04-07T14:05:23.263Z,2.60
2023-04-07T14:07:51.059Z,1.95
2023-04-07T14:10:17.821Z,2.00
2023-04-07T14:12:44.375Z,1.65
2023-04-07T14:15:11.065Z,2.03
2023-04-07T14:17:37.612Z,3.25
2023-04-07T14:20:04.654Z,2.35
2023-04-07T14:22:31.460Z,2.45
2023-04-07T14:24:58.107Z,2.08
2023-04-07T14:27:24.644Z,3.38
2023-04-07T14:29:51.204Z,3.67
2023-04-07T14:32:17.719Z,2.17
2023-04-07T14:34:44.248Z,2.08
2023-04-07T14:37:11.826Z,2.33
2023-04-07T14:39:39.470Z,2.67
2023-04-07T14:42:07.496Z,2.42
2023-04-07T14:44:34.043Z,3.03
2023-04-07T14:47:00.554Z,3.17
2023-04-07T14:49:28.589Z,4.15
2023-04-07T14:51:55.175Z,4.20
2023-04-07T14:54:21.699Z,5.47
2023-04-07T14:56:48.267Z,6.70
2023-04-07T14:59:14.868Z,5.63
2023-04-07T15:01:41.471Z,2.95
2023-04-07T15:04:08.148Z,2.67
2023-04-07T15:06:34.757Z,2.03
2023-04-07T15:09:01.293Z,2.20
2023-04-07T15:11:27.771Z,2.47
2023-04-07T15:13:54.479Z,2.83
2023-04-07T15:16:21.059Z,2.95
2023-04-07T15:18:48.572Z,3.10
2023-04-07T15:21:15.829Z,2.90
2023-04-07T15:23:42.762Z,2.70
2023-04-07T15:26:10.120Z,2.72
2023-04-07T15:28:37.028Z,2.45
2023-04-07T15:31:08.270Z,3.72
2023-04-07T15:33:40.009Z,2.60
2023-04-07T15:36:08.440Z,2.53
2023-04-07T15:38:35.601Z,2.40
2023-04-07T15:41:02.201Z,4.15
2023-04-07T15:43:29.133Z,3.33
2023-04-07T15:45:57.328Z,2.92
2023-04-07T15:48:24.223Z,1.80
2023-04-07T15:50:51.955Z,2.30
2023-04-07T15:53:18.531Z,2.78
2023-04-07T15:55:45.530Z,1.92
2023-04-07T15:58:12.141Z,2.15
2023-04-07T16:00:39.528Z,2.80
2023-04-07T16:03:06.329Z,2.78
2023-04-07T16:05:33.015Z,2.45
2023-04-07T16:07:59.563Z,1.95
2023-04-07T16:10:26.119Z,3.47
2023-04-07T16:12:52.707Z,4.00
2023-04-07T16:15:28.875Z,4.10
2023-04-07T16:18:07.487Z,2.55
2023-04-07T16:20:34.018Z,3.15
2023-04-07T16:23:00.580Z,3.13
2023-04-07T16:25:27.228Z,3.42
2023-04-07T16:27:53.954Z,3.63
2023-04-07T16:30:20.831Z,4.40
2023-04-07T16:32:47.544Z,3.53
2023-04-07T16:35:15.151Z,4.80
2023-04-07T16:37:42.506Z,3.63
2023-04-07T16:40:10.118Z,5.07
2023-04-07T16:43:37.772Z,3.88
2023-04-07T16:46:06.118Z,5.82
2023-04-07T16:48:33.236Z,3.92
2023-04-07T16:51:00.181Z,4.85
2023-04-07T16:53:26.814Z,3.85
2023-04-07T16:55:53.392Z,3.55
2023-04-07T16:58:21.164Z,3.92
2023-04-07T17:00:47.685Z,2.85
2023-04-07T17:03:17.569Z,4.00
2023-04-07T17:08:14.793Z,4.05
2023-04-07T17:10:41.336Z,3.38
2023-04-07T17:13:07.856Z,3.53
2023-04-07T17:15:38.217Z,3.70
2023-04-07T17:18:04.958Z,3.30
2023-04-07T17:20:31.492Z,3.30
2023-04-07T17:22:58.050Z,4.88
2023-04-07T17:25:24.892Z,3.65
2023-04-07T17:27:51.485Z,5.50
2023-04-07T17:30:18.472Z,3.80
2023-04-07T17:32:45.152Z,5.93
2023-04-07T17:35:11.772Z,6.35
2023-04-07T17:37:38.462Z,7.47
2023-04-07T17:40:05.824Z,12.10
2023-04-07T17:42:33.011Z,11.05
2023-04-07T17:44:59.554Z,13.32
2023-04-07T17:47:26.210Z,12.38
2023-04-07T17:49:52.966Z,7.10
2023-04-07T17:52:19.489Z,4.53
2023-04-07T17:54:46.271Z,4.43
2023-04-07T17:57:14.474Z,2.83
2023-04-07T17:59:41.187Z,3.60
2023-04-07T18:02:10.644Z,1.90
2023-04-07T18:04:37.931Z,1.50
2023-04-07T18:07:04.963Z,2.38
2023-04-07T18:09:32.545Z,8.57
2023-04-07T18:12:01.525Z,12.35
2023-04-07T18:14:28.886Z,9.50
2023-04-07T18:16:55.852Z,6.85
2023-04-07T18:19:25.466Z,5.00
2023-04-07T18:21:53.452Z,6.68
2023-04-07T18:24:20.917Z,7.28
2023-04-07T18:26:47.818Z,4.57
2023-04-07T18:29:14.924Z,4.45
2023-04-07T18:31:42.344Z,12.55
2023-04-07T18:34:10.299Z,6.60
2023-04-07T18:36:37.538Z,10.57
2023-04-07T18:39:04.876Z,12.88
2023-04-07T18:41:34.293Z,16.35
2023-04-07T18:44:01.266Z,22.10
2023-04-07T18:46:27.865Z,29.67
2023-04-07T18:48:54.502Z,45.10
2023-04-07T18:51:21.292Z,27.13
2023-04-07T18:53:48.045Z,13.18
2023-04-07T18:56:14.826Z,6.20
2023-04-07T18:58:44.915Z,4.93
2023-04-07T19:03:40.781Z,4.65
2023-04-07T19:06:07.801Z,4.65
2023-04-07T19:08:36.147Z,2.97
2023-04-07T19:11:02.806Z,2.67
2023-04-07T19:13:29.326Z,2.13
2023-04-07T19:15:55.969Z,3.47
2023-04-07T19:18:22.756Z,2.30
2023-04-07T19:20:49.302Z,6.63
2023-04-07T19:23:15.855Z,8.73
2023-04-07T19:25:45.047Z,15.38
2023-04-07T19:28:12.299Z,9.27
2023-04-07T19:30:38.770Z,6.70
2023-04-07T19:33:05.616Z,5.97
2023-04-07T19:35:32.963Z,3.25
2023-04-07T19:37:59.637Z,6.82
2023-04-07T19:40:26.280Z,14.90
2023-04-07T19:42:54.719Z,9.07
2023-04-07T19:45:21.524Z,8.25
2023-04-07T19:47:48.393Z,4.63
2023-04-07T19:50:15.023Z,3.97
2023-04-07T19:52:43.580Z,3.42
2023-04-07T19:55:10.903Z,3.38
2023-04-07T19:57:38.393Z,3.97
2023-04-07T20:00:05.401Z,4.53
2023-04-07T20:02:32.213Z,4.40
2023-04-07T20:04:58.804Z,5.20
2023-04-07T20:07:25.376Z,5.72
2023-04-07T20:09:53.940Z,3.53
2023-04-07T20:12:20.906Z,3.88
2023-04-07T20:14:47.427Z,3.20
2023-04-07T20:17:13.947Z,3.80
2023-04-07T20:19:41.516Z,4.63
2023-04-07T20:22:08.830Z,3.75
2023-04-07T20:24:36.000Z,3.92
2023-04-07T20:27:02.761Z,5.60
2023-04-07T20:29:29.326Z,4.95
2023-04-07T20:31:55.941Z,4.10
2023-04-07T20:34:22.555Z,4.25
2023-04-07T20:36:49.276Z,3.47
2023-04-07T20:39:16.569Z,3.83
2023-04-07T20:41:45.051Z,6.20
2023-04-07T20:44:12.208Z,7.90
2023-04-07T20:46:38.898Z,7.05
2023-04-07T20:49:07.771Z,8.27
2023-04-07T20:51:37.289Z,13.13
2023-04-07T20:54:04.703Z,12.27
2023-04-07T20:56:31.933Z,11.52
2023-04-07T20:58:58.620Z,7.45
2023-04-07T21:01:25.467Z,6.50
2023-04-07T21:03:52.863Z,5.25
2023-04-07T21:06:19.470Z,4.82
2023-04-07T21:08:46.172Z,4.53
2023-04-07T21:11:12.779Z,4.50
2023-04-07T21:13:39.344Z,5.68
2023-04-07T21:16:06.155Z,5.38
2023-04-07T21:18:33.425Z,5.10
2023-04-07T21:21:02.096Z,6.85
2023-04-07T21:23:31.204Z,5.13
2023-04-07T21:26:02.261Z,4.53
2023-04-07T21:28:29.065Z,5.00
2023-04-07T21:30:56.677Z,4.35
2023-04-07T21:33:23.294Z,4.60
2023-04-07T21:35:51.211Z,4.53
2023-04-07T21:38:18.017Z,5.97
2023-04-07T21:40:45.030Z,5.20
2023-04-07T21:43:12.252Z,5.35
2023-04-07T21:45:39.138Z,5.15
2023-04-07T21:48:06.550Z,4.90
2023-04-07T21:50:33.356Z,3.83
2023-04-07T21:52:59.946Z,5.05
2023-04-07T21:55:27.259Z,4.80
2023-04-07T21:57:54.335Z,6.15
2023-04-07T22:00:21.784Z,4.03
2023-04-07T22:02:48.705Z,5.05
2023-04-07T22:05:16.109Z,5.32
2023-04-07T22:07:42.800Z,4.18
2023-04-07T22:10:09.746Z,4.32
2023-04-07T22:12:36.542Z,6.13
2023-04-07T22:15:03.321Z,4.75
2023-04-07T22:17:30.574Z,4.47
2023-04-07T22:19:57.188Z,4.07
2023-04-07T22:22:23.698Z,6.05
2023-04-07T22:24:50.321Z,3.80
2023-04-07T22:27:16.861Z,4.60
2023-04-07T22:29:43.418Z,4.30
2023-04-07T22:32:09.963Z,4.63
2023-04-07T22:34:36.543Z,4.35
2023-04-07T22:37:03.097Z,4.50
2023-04-07T22:39:29.686Z,4.18
2023-04-07T22:41:56.268Z,6.00
2023-04-07T22:44:22.776Z,4.45
2023-04-07T22:46:49.347Z,4.25
2023-04-07T22:49:16.170Z,5.43
2023-04-07T22:51:48.219Z,5.40
2023-04-07T22:54:15.884Z,4.55
2023-04-07T22:56:42.759Z,4.72
2023-04-07T22:59:09.225Z,6.80
2023-04-07T23:01:35.880Z,5.53
2023-04-07T23:04:02.420Z,5.72
2023-04-07T23:06:29.133Z,5.65
2023-04-07T23:08:56.471Z,5.30
2023-04-07T23:11:23.110Z,5.53
2023-04-07T23:13:49.929Z,5.72
2023-04-07T23:16:16.599Z,6.15
2023-04-07T23:18:45.815Z,6.00
2023-04-07T23:21:13.165Z,5.80
2023-04-07T23:23:39.670Z,6.20
2023-04-07T23:26:08.998Z,5.18
2023-04-07T23:28:35.845Z,5.20
2023-04-07T23:31:02.711Z,5.68
2023-04-07T23:33:31.649Z,6.70
2023-04-07T23:35:58.781Z,5.43
2023-04-07T23:38:25.943Z,6.22
2023-04-07T23:40:53.087Z,5.55
2023-04-07T23:43:19.654Z,4.97
2023-04-07T23:45:46.171Z,6.45
2023-04-07T23:48:12.657Z,7.35
2023-04-07T23:50:39.466Z,8.02
2023-04-07T23:53:06.288Z,6.82
2023-04-07T23:55:33.093Z,5.70
2023-04-07T23:57:59.663Z,6.00
